Terminal Aerodrome Forecast
Issued by NWS Charleston, WV

Current Version | Previous Version | Graphics & Text | Print | Product List | Glossary On
Versions: 1 2 3 4 5 6 7 8 9 10 11 12 13 14 15 16 17 18 19 20 21 22 23 24 25 26 27 28 29
000
FTUS41 KRLX 041510 AAA
TAFHTS
TAF AMD
KHTS 041510Z 0415/0512 09005KT P6SM OVC060
     FM050100 VRB03KT 6SM -RA OVC025
     FM050300 18004KT P6SM -RA OVC015
     FM050700 24005KT P6SM SCT006 OVC015=

USA.gov is the U.S. government's official web portal to all federal, state and local government web resources and services.